createdAt,value
2018-11-04T00:00:54.835Z,12.63
2018-11-04T00:04:00.814Z,12.27
2018-11-04T00:07:06.786Z,11.30
2018-11-04T00:10:12.638Z,13.40
2018-11-04T00:13:18.751Z,13.60
2018-11-04T00:16:24.226Z,11.03
2018-11-04T00:19:29.634Z,14.03
2018-11-04T00:22:35.142Z,10.03
2018-11-04T00:25:40.498Z,12.07
2018-11-04T00:28:45.862Z,12.30
2018-11-04T00:31:51.346Z,10.33
2018-11-04T00:34:56.762Z,15.10
2018-11-04T00:38:02.149Z,12.60
2018-11-04T00:41:07.886Z,11.73
2018-11-04T00:44:13.239Z,11.83
2018-11-04T00:47:18.780Z,12.13
2018-11-04T00:50:24.130Z,12.27
2018-11-04T00:53:29.612Z,18.03
2018-11-04T00:56:35.024Z,9.30
2018-11-04T00:59:40.466Z,10.70
2018-11-04T01:02:47.058Z,10.53
2018-11-04T01:05:52.402Z,13.73
2018-11-04T01:08:57.794Z,13.17
2018-11-04T01:12:03.659Z,10.07
2018-11-04T01:15:11.187Z,11.17
2018-11-04T01:18:16.558Z,11.23
2018-11-04T01:21:21.958Z,10.90
2018-11-04T01:24:27.992Z,9.40
2018-11-04T01:27:33.558Z,12.40
2018-11-04T01:30:39.594Z,9.17
2018-11-04T01:33:44.995Z,9.57
2018-11-04T01:36:50.546Z,9.03
2018-11-04T01:39:55.962Z,13.03
2018-11-04T01:43:01.358Z,12.63
2018-11-04T01:46:06.914Z,10.47
2018-11-04T01:49:12.609Z,12.70
2018-11-04T01:52:18.077Z,9.07
2018-11-04T01:55:23.418Z,8.80
2018-11-04T01:58:28.884Z,11.70
2018-11-04T02:01:34.330Z,9.37
2018-11-04T02:04:39.706Z,8.73
2018-11-04T02:07:45.054Z,16.63
2018-11-04T02:10:50.406Z,98.77
2018-11-04T02:13:55.851Z,10.77
2018-11-04T02:17:01.186Z,9.07
2018-11-04T02:20:08.002Z,8.50
2018-11-04T02:23:13.401Z,9.37
2018-11-04T02:26:18.754Z,11.20
2018-11-04T02:29:24.093Z,9.13
2018-11-04T02:32:29.611Z,9.73
2018-11-04T02:35:35.591Z,11.17
2018-11-04T02:38:41.086Z,9.87
2018-11-04T02:41:46.554Z,10.23
2018-11-04T02:44:51.945Z,10.70
2018-11-04T02:47:57.305Z,10.63
2018-11-04T02:51:02.659Z,9.63
2018-11-04T02:54:08.011Z,11.27
2018-11-04T02:57:13.339Z,9.50
2018-11-04T03:00:18.741Z,7.80
2018-11-04T03:03:24.178Z,10.03
2018-11-04T03:06:29.526Z,10.13
2018-11-04T03:09:34.900Z,9.43
2018-11-04T03:12:40.510Z,9.00
2018-11-04T03:15:45.849Z,9.50
2018-11-04T03:18:51.218Z,7.23
2018-11-04T03:21:56.673Z,12.43
2018-11-04T03:25:02.046Z,9.07
2018-11-04T03:28:09.323Z,9.10
2018-11-04T03:31:14.714Z,9.00
2018-11-04T03:34:20.082Z,8.43
2018-11-04T03:37:25.447Z,10.20
2018-11-04T03:40:30.836Z,8.60
2018-11-04T03:43:36.325Z,10.70
2018-11-04T03:46:41.719Z,8.60
2018-11-04T03:49:47.077Z,11.13
2018-11-04T03:52:52.575Z,10.70
2018-11-04T03:55:57.916Z,9.43
2018-11-04T03:59:03.710Z,8.83
2018-11-04T04:02:09.320Z,13.63
2018-11-04T04:05:14.670Z,10.33
2018-11-04T04:08:20.286Z,8.27
2018-11-04T04:11:25.739Z,9.27
2018-11-04T04:14:31.085Z,10.93
2018-11-04T04:17:36.435Z,7.77
2018-11-04T04:20:41.811Z,8.63
2018-11-04T04:23:47.312Z,10.23
2018-11-04T04:26:52.657Z,9.63
2018-11-04T04:29:58.669Z,8.40
2018-11-04T04:33:04.093Z,11.23
2018-11-04T04:36:09.441Z,11.70
2018-11-04T04:39:14.792Z,11.60
2018-11-04T04:42:20.222Z,13.40
2018-11-04T04:45:25.571Z,9.63
2018-11-04T04:48:31.282Z,10.70
2018-11-04T04:51:36.634Z,13.57
2018-11-04T04:54:44.124Z,9.17
2018-11-04T04:57:49.455Z,8.97
2018-11-04T05:00:55.714Z,9.27
2018-11-04T05:04:01.077Z,9.10
2018-11-04T05:07:06.998Z,8.43
2018-11-04T05:10:12.687Z,11.27
2018-11-04T05:13:18.110Z,8.73
2018-11-04T05:16:23.487Z,10.40
2018-11-04T05:19:28.898Z,13.30
2018-11-04T05:22:34.387Z,10.83
2018-11-04T05:25:39.759Z,8.37
2018-11-04T05:28:45.139Z,12.23
2018-11-04T05:31:50.690Z,9.90
2018-11-04T05:34:56.133Z,9.87
2018-11-04T05:38:01.591Z,10.23
2018-11-04T05:41:07.442Z,9.63
2018-11-04T05:44:12.798Z,10.63
2018-11-04T05:47:18.166Z,9.27
2018-11-04T05:50:24.212Z,8.97
2018-11-04T05:53:29.669Z,9.60
2018-11-04T05:56:35.187Z,9.17
2018-11-04T05:59:40.553Z,8.70
2018-11-04T06:02:47.059Z,11.20
2018-11-04T06:05:52.434Z,9.63
2018-11-04T06:08:57.798Z,10.33
2018-11-04T06:12:03.410Z,11.27
2018-11-04T06:15:09.551Z,13.30
2018-11-04T06:18:15.484Z,11.33
2018-11-04T06:21:20.976Z,11.93
2018-11-04T06:24:26.366Z,9.50
2018-11-04T06:27:31.734Z,14.90
2018-11-04T06:30:37.098Z,13.63
2018-11-04T06:33:42.985Z,13.03
2018-11-04T06:36:48.378Z,10.97
2018-11-04T06:39:53.748Z,13.20
2018-11-04T06:42:59.242Z,13.67
2018-11-04T06:46:04.614Z,11.43
2018-11-04T06:49:10.026Z,12.87
2018-11-04T06:52:15.472Z,11.40
2018-11-04T06:55:20.818Z,11.57
2018-11-04T06:58:26.335Z,12.20
2018-11-04T07:01:31.971Z,12.30
2018-11-04T07:04:37.348Z,11.43
2018-11-04T07:07:43.167Z,12.50
2018-11-04T07:10:48.509Z,13.23
2018-11-04T07:13:53.895Z,13.40
2018-11-04T07:16:59.238Z,13.43
2018-11-04T07:20:05.266Z,11.27
2018-11-04T07:23:10.874Z,12.27
2018-11-04T07:26:16.206Z,12.37
2018-11-04T07:29:21.566Z,12.43
2018-11-04T07:32:27.044Z,12.17
2018-11-04T07:35:34.499Z,11.23
2018-11-04T07:38:39.845Z,12.20
2018-11-04T07:41:45.282Z,12.77
2018-11-04T07:44:50.653Z,14.47
2018-11-04T07:47:56.015Z,11.43
2018-11-04T07:51:01.354Z,11.67
2018-11-04T07:54:07.310Z,12.57
2018-11-04T07:57:14.856Z,12.20
2018-11-04T08:00:20.239Z,13.93
2018-11-04T08:03:25.802Z,13.17
2018-11-04T08:06:31.329Z,13.17
2018-11-04T08:09:36.678Z,14.63
2018-11-04T08:12:42.126Z,15.73
2018-11-04T08:15:47.472Z,13.07
2018-11-04T08:18:52.834Z,15.10
2018-11-04T08:21:58.250Z,17.13
2018-11-04T08:25:03.610Z,17.17
2018-11-04T08:28:09.397Z,19.47
2018-11-04T08:31:14.830Z,17.83
2018-11-04T08:34:20.378Z,17.40
2018-11-04T08:37:26.336Z,21.70
2018-11-04T08:40:31.765Z,22.57
2018-11-04T08:43:37.373Z,18.83
2018-11-04T08:46:42.966Z,19.63
2018-11-04T08:49:48.367Z,22.27
2018-11-04T08:52:53.762Z,27.67
2018-11-04T08:55:59.113Z,31.23
2018-11-04T08:59:04.470Z,29.97
2018-11-04T09:02:09.925Z,27.03
2018-11-04T09:05:15.283Z,33.20
2018-11-04T09:08:21.000Z,34.90
2018-11-04T09:11:26.472Z,37.33
2018-11-04T09:14:31.830Z,34.63
2018-11-04T09:17:37.170Z,38.53
2018-11-04T09:20:42.692Z,33.30
2018-11-04T09:23:48.302Z,34.57
2018-11-04T09:26:55.854Z,37.70
2018-11-04T09:30:01.251Z,41.90
2018-11-04T09:33:07.170Z,38.93
2018-11-04T09:36:12.683Z,41.10
2018-11-04T09:39:18.203Z,40.00
2018-11-04T09:42:23.649Z,39.23
2018-11-04T09:45:29.046Z,36.10
2018-11-04T09:48:34.469Z,44.33
2018-11-04T09:51:40.259Z,44.27
2018-11-04T09:54:45.944Z,45.07
2018-11-04T09:57:51.329Z,41.67
2018-11-04T10:00:56.768Z,46.83
2018-11-04T10:04:02.162Z,39.03
2018-11-04T10:07:08.244Z,42.37
2018-11-04T10:10:15.310Z,41.97
2018-11-04T10:13:20.906Z,39.80
2018-11-04T10:16:27.281Z,40.57
2018-11-04T10:19:32.989Z,37.67
2018-11-04T10:22:38.546Z,40.63
2018-11-04T10:25:43.930Z,37.00
2018-11-04T10:28:49.298Z,36.63
2018-11-04T10:31:58.602Z,38.27
2018-11-04T10:35:04.015Z,39.97
2018-11-04T10:38:09.369Z,41.30
2018-11-04T10:41:15.004Z,37.03
2018-11-04T10:44:20.374Z,39.53
2018-11-04T10:47:26.097Z,37.87
2018-11-04T10:50:31.470Z,41.33
2018-11-04T10:53:37.749Z,40.53
2018-11-04T10:56:45.307Z,39.30
2018-11-04T10:59:51.048Z,36.97
2018-11-04T11:02:56.499Z,36.30
2018-11-04T11:06:02.037Z,41.53
2018-11-04T11:09:10.066Z,40.23
2018-11-04T11:12:17.273Z,43.67
2018-11-04T11:15:22.676Z,43.03
2018-11-04T11:18:28.418Z,43.73
2018-11-04T11:21:33.909Z,41.50
2018-11-04T11:24:39.349Z,38.23
2018-11-04T11:27:44.763Z,40.30
2018-11-04T11:30:50.534Z,38.63
2018-11-04T11:33:58.436Z,37.23
2018-11-04T11:37:06.162Z,40.40
2018-11-04T11:40:11.955Z,38.07
2018-11-04T11:43:17.461Z,39.97
2018-11-04T11:46:22.894Z,35.60
2018-11-04T11:49:28.296Z,41.17
2018-11-04T11:52:33.942Z,37.27
2018-11-04T11:55:41.805Z,33.00
2018-11-04T11:58:47.267Z,35.90
2018-11-04T12:01:52.746Z,42.67
2018-11-04T12:04:58.137Z,37.77
2018-11-04T12:08:03.557Z,36.07
2018-11-04T12:11:08.983Z,36.47
2018-11-04T12:14:14.381Z,35.23
2018-11-04T12:17:19.818Z,34.63
2018-11-04T12:20:25.770Z,33.80
2018-11-04T12:23:31.623Z,32.17
2018-11-04T12:26:37.222Z,36.63
2018-11-04T12:29:43.143Z,33.07
2018-11-04T12:32:48.569Z,36.53
2018-11-04T12:35:54.524Z,35.17
2018-11-04T12:38:59.930Z,34.67
2018-11-04T12:42:05.671Z,33.00
2018-11-04T12:45:12.450Z,32.80
2018-11-04T12:48:18.297Z,31.13
2018-11-04T12:51:23.717Z,30.77
2018-11-04T12:54:29.110Z,30.53
2018-11-04T12:57:35.052Z,31.07
2018-11-04T13:00:40.488Z,35.93
2018-11-04T13:03:45.937Z,32.93
2018-11-04T13:06:51.387Z,29.13
2018-11-04T13:09:56.885Z,31.87
2018-11-04T13:13:02.515Z,33.13
2018-11-04T13:16:08.078Z,29.60
2018-11-04T13:19:13.485Z,33.10
2018-11-04T13:22:18.937Z,31.07
2018-11-04T13:25:24.408Z,34.63
2018-11-04T13:28:30.460Z,32.67
2018-11-04T13:31:36.146Z,34.03
2018-11-04T13:34:41.880Z,32.80
2018-11-04T13:37:49.710Z,32.07
2018-11-04T13:40:55.583Z,31.53
2018-11-04T13:44:01.019Z,32.00
2018-11-04T13:47:06.539Z,33.20
2018-11-04T13:50:14.505Z,31.07
2018-11-04T13:53:19.925Z,31.20
2018-11-04T13:56:25.400Z,33.67
2018-11-04T13:59:30.826Z,29.30
2018-11-04T14:02:36.780Z,33.53
2018-11-04T14:05:42.739Z,29.27
2018-11-04T14:08:48.884Z,29.97
2018-11-04T14:11:54.321Z,33.37
2018-11-04T14:14:59.756Z,35.23
2018-11-04T14:18:05.707Z,31.17
2018-11-04T14:21:11.110Z,34.47
2018-11-04T14:24:16.509Z,34.13
2018-11-04T14:27:21.970Z,29.57
2018-11-04T14:30:27.338Z,28.73
2018-11-04T14:33:32.781Z,32.10
2018-11-04T14:36:38.746Z,30.20
2018-11-04T14:39:44.313Z,33.63
2018-11-04T14:42:49.744Z,32.00
2018-11-04T14:45:55.354Z,33.07
2018-11-04T14:49:01.527Z,27.87
2018-11-04T14:52:06.937Z,32.13
2018-11-04T14:55:12.810Z,29.90
2018-11-04T14:58:18.246Z,32.37
2018-11-04T15:01:23.796Z,32.30
2018-11-04T15:04:29.333Z,33.77
2018-11-04T15:07:34.854Z,31.83
2018-11-04T15:10:40.318Z,29.33
2018-11-04T15:13:45.723Z,36.03
2018-11-04T15:16:51.178Z,42.03
2018-11-04T15:19:56.741Z,33.67
2018-11-04T15:23:02.421Z,34.80
2018-11-04T15:26:08.900Z,31.97
2018-11-04T15:29:14.288Z,34.80
2018-11-04T15:32:19.722Z,33.77
2018-11-04T15:35:25.641Z,35.50
2018-11-04T15:38:31.063Z,34.37
2018-11-04T15:41:36.491Z,33.00
2018-11-04T15:44:41.892Z,31.43
2018-11-04T15:47:47.363Z,32.40
2018-11-04T15:50:53.114Z,30.57
2018-11-04T15:53:58.575Z,34.43
2018-11-04T15:57:09.323Z,30.87
2018-11-04T16:00:15.710Z,31.53
2018-11-04T16:03:21.150Z,29.63
2018-11-04T16:06:26.574Z,30.30
2018-11-04T16:09:31.989Z,29.87
2018-11-04T16:12:48.480Z,28.80
2018-11-04T16:16:03.800Z,30.20
2018-11-04T16:19:23.053Z,26.87
2018-11-04T16:22:28.459Z,28.63
2018-11-04T16:25:33.943Z,31.57
2018-11-04T16:28:39.556Z,28.63
2018-11-04T16:31:45.036Z,29.80
2018-11-04T16:34:50.446Z,28.80
2018-11-04T16:37:55.881Z,27.97
2018-11-04T16:41:01.494Z,28.63
2018-11-04T16:44:07.706Z,27.20
2018-11-04T16:47:13.146Z,32.57
2018-11-04T16:50:18.582Z,27.90
2018-11-04T16:53:24.095Z,32.03
2018-11-04T16:56:31.304Z,32.17
2018-11-04T16:59:36.774Z,34.50
2018-11-04T17:02:43.969Z,33.83
2018-11-04T17:05:51.564Z,34.87
2018-11-04T17:08:57.160Z,38.87
2018-11-04T17:12:02.622Z,36.43
2018-11-04T17:15:11.422Z,39.20
2018-11-04T17:18:16.938Z,39.13
2018-11-04T17:21:22.898Z,37.00
2018-11-04T17:24:30.062Z,45.30
2018-11-04T17:27:35.527Z,44.27
2018-11-04T17:30:40.936Z,40.50
2018-11-04T17:33:46.422Z,42.93
2018-11-04T17:36:51.826Z,44.70
2018-11-04T17:39:57.540Z,38.73
2018-11-04T17:43:03.038Z,39.60
2018-11-04T17:46:08.586Z,46.20
2018-11-04T17:49:13.999Z,45.43
2018-11-04T17:52:19.475Z,41.73
2018-11-04T17:55:24.887Z,42.63
2018-11-04T17:58:30.272Z,43.20
2018-11-04T18:01:35.750Z,43.10
2018-11-04T18:04:41.156Z,43.63
2018-11-04T18:07:47.267Z,41.73
2018-11-04T18:10:52.676Z,42.93
2018-11-04T18:13:58.172Z,41.87
2018-11-04T18:17:03.694Z,43.63
2018-11-04T18:20:10.782Z,47.43
2018-11-04T18:23:16.214Z,44.30
2018-11-04T18:26:21.764Z,45.47
2018-11-04T18:29:27.330Z,47.83
2018-11-04T18:32:32.794Z,50.90
2018-11-04T18:35:38.286Z,46.90
2018-11-04T18:38:43.666Z,48.67
2018-11-04T18:41:49.139Z,43.33
2018-11-04T18:44:54.611Z,42.70
2018-11-04T18:48:00.513Z,43.97
2018-11-04T18:51:06.542Z,45.63
2018-11-04T18:54:13.227Z,43.83
2018-11-04T18:57:18.679Z,43.93
2018-11-04T19:00:24.210Z,47.60
2018-11-04T19:03:31.785Z,42.77
2018-11-04T19:06:37.287Z,45.83
2018-11-04T19:09:43.004Z,43.20
2018-11-04T19:12:48.505Z,41.63
2018-11-04T19:15:53.955Z,45.10
2018-11-04T19:18:59.456Z,46.23
2018-11-04T19:22:05.314Z,42.87
2018-11-04T19:25:12.398Z,42.47
2018-11-04T19:28:17.910Z,48.90
2018-11-04T19:31:24.135Z,47.63
2018-11-04T19:34:29.597Z,47.70
2018-11-04T19:37:35.037Z,50.47
2018-11-04T19:40:40.508Z,46.27
2018-11-04T19:43:46.037Z,49.70
2018-11-04T19:46:51.689Z,49.23
2018-11-04T19:49:57.065Z,53.90
2018-11-04T19:53:03.050Z,47.23
2018-11-04T19:56:08.894Z,51.97
2018-11-04T19:59:14.318Z,45.80
2018-11-04T20:02:20.034Z,55.77
2018-11-04T20:05:25.564Z,48.53
2018-11-04T20:08:31.418Z,54.77
2018-11-04T20:11:36.919Z,49.63
2018-11-04T20:14:42.346Z,53.90
2018-11-04T20:17:48.659Z,49.97
2018-11-04T20:20:54.499Z,52.83
2018-11-04T20:24:02.898Z,57.57
2018-11-04T20:27:08.322Z,51.60
2018-11-04T20:30:14.365Z,54.87
2018-11-04T20:33:19.829Z,56.87
2018-11-04T20:36:25.949Z,55.63
2018-11-04T20:39:36.606Z,52.17
2018-11-04T20:42:42.131Z,53.47
2018-11-04T20:45:47.511Z,50.53
2018-11-04T20:48:58.067Z,52.37
2018-11-04T20:52:03.603Z,58.10
2018-11-04T20:55:09.206Z,48.50
2018-11-04T20:58:14.737Z,57.33
2018-11-04T21:01:20.925Z,56.30
2018-11-04T21:04:26.313Z,54.10
2018-11-04T21:07:31.714Z,52.73
2018-11-04T21:10:37.097Z,48.63
2018-11-04T21:13:42.529Z,55.57
2018-11-04T21:16:48.125Z,56.73
2018-11-04T21:19:53.549Z,59.13
2018-11-04T21:22:58.969Z,59.53
2018-11-04T21:26:04.431Z,59.03
2018-11-04T21:29:10.043Z,56.77
2018-11-04T21:32:15.549Z,64.47
2018-11-04T21:35:20.928Z,63.87
2018-11-04T21:38:26.402Z,62.00
2018-11-04T21:41:31.875Z,68.13
2018-11-04T21:44:37.358Z,56.83
2018-11-04T21:47:43.304Z,62.27
2018-11-04T21:50:48.816Z,63.87
2018-11-04T21:53:54.482Z,63.13
2018-11-04T21:56:59.903Z,60.57
2018-11-04T22:00:08.306Z,68.50
2018-11-04T22:03:13.991Z,63.73
2018-11-04T22:06:19.462Z,64.33
2018-11-04T22:09:24.871Z,64.77
2018-11-04T22:12:30.909Z,72.13
2018-11-04T22:15:36.818Z,62.57
2018-11-04T22:18:42.253Z,67.27
2018-11-04T22:21:47.865Z,70.30
2018-11-04T22:24:53.285Z,65.27
2018-11-04T22:27:58.714Z,70.07
2018-11-04T22:31:04.203Z,75.10
2018-11-04T22:34:10.139Z,65.17
2018-11-04T22:37:15.667Z,65.30
2018-11-04T22:40:21.078Z,77.03
2018-11-04T22:43:26.598Z,66.80
2018-11-04T22:46:32.008Z,71.10
2018-11-04T22:49:37.422Z,71.30
2018-11-04T22:52:43.318Z,60.57
2018-11-04T22:55:48.746Z,69.50
2018-11-04T22:58:54.370Z,70.83
2018-11-04T23:01:59.943Z,68.70
2018-11-04T23:05:11.647Z,68.23
2018-11-04T23:08:17.077Z,68.77
2018-11-04T23:11:22.668Z,65.70
2018-11-04T23:14:28.066Z,74.90
2018-11-04T23:17:33.437Z,65.93
2018-11-04T23:20:38.845Z,61.83
2018-11-04T23:23:44.286Z,67.37
2018-11-04T23:26:49.677Z,71.30
2018-11-04T23:29:55.247Z,74.40
2018-11-04T23:33:00.714Z,73.60
2018-11-04T23:36:06.471Z,67.57
2018-11-04T23:39:11.930Z,65.90
2018-11-04T23:42:17.297Z,68.80
2018-11-04T23:45:22.694Z,61.03
2018-11-04T23:48:28.137Z,67.77
2018-11-04T23:51:33.850Z,65.93
2018-11-04T23:54:39.246Z,59.30
2018-11-04T23:57:44.655Z,57.97
